sensor_id;sensor_type;location;lat;lon;timestamp;pressure;altitude;pressure_sealevel;temperature
44429;BMP180;30134;47.866;-4.222;2022-08-01T00:01:55;102146.00;;;28.80
44429;BMP180;30134;47.866;-4.222;2022-08-01T00:04:21;102143.00;;;29.00
44429;BMP180;30134;47.866;-4.222;2022-08-01T00:06:47;102139.00;;;29.10
44429;BMP180;30134;47.866;-4.222;2022-08-01T00:09:13;102146.00;;;28.90
44429;BMP180;30134;47.866;-4.222;2022-08-01T00:11:39;102147.00;;;28.90
44429;BMP180;30134;47.866;-4.222;2022-08-01T00:14:05;102150.00;;;29.00
44429;BMP180;30134;47.866;-4.222;2022-08-01T00:16:31;102146.00;;;29.00
44429;BMP180;30134;47.866;-4.222;2022-08-01T00:18:57;102140.00;;;29.10
44429;BMP180;30134;47.866;-4.222;2022-08-01T00:21:23;102138.00;;;29.10
44429;BMP180;30134;47.866;-4.222;2022-08-01T00:23:49;102138.00;;;29.00
44429;BMP180;30134;47.866;-4.222;2022-08-01T00:26:16;102145.00;;;28.80
44429;BMP180;30134;47.866;-4.222;2022-08-01T00:28:42;102141.00;;;28.90
44429;BMP180;30134;47.866;-4.222;2022-08-01T00:31:08;102141.00;;;29.00
44429;BMP180;30134;47.866;-4.222;2022-08-01T00:33:34;102146.00;;;29.00
44429;BMP180;30134;47.866;-4.222;2022-08-01T00:36:03;102134.00;;;28.90
44429;BMP180;30134;47.866;-4.222;2022-08-01T00:38:29;102139.00;;;29.00
44429;BMP180;30134;47.866;-4.222;2022-08-01T00:41:02;102141.00;;;29.00
44429;BMP180;30134;47.866;-4.222;2022-08-01T00:43:28;102143.00;;;29.00
44429;BMP180;30134;47.866;-4.222;2022-08-01T00:45:54;102140.00;;;29.10
44429;BMP180;30134;47.866;-4.222;2022-08-01T00:48:20;102138.00;;;29.00
44429;BMP180;30134;47.866;-4.222;2022-08-01T00:50:47;102131.00;;;29.10
44429;BMP180;30134;47.866;-4.222;2022-08-01T00:53:13;102129.00;;;29.00
44429;BMP180;30134;47.866;-4.222;2022-08-01T00:55:39;102125.00;;;29.00
44429;BMP180;30134;47.866;-4.222;2022-08-01T00:58:06;102115.00;;;29.00
44429;BMP180;30134;47.866;-4.222;2022-08-01T01:00:34;102127.00;;;28.90
44429;BMP180;30134;47.866;-4.222;2022-08-01T01:03:01;102116.00;;;29.00
44429;BMP180;30134;47.866;-4.222;2022-08-01T01:05:27;102121.00;;;29.00
44429;BMP180;30134;47.866;-4.222;2022-08-01T01:08:02;102118.00;;;29.10
44429;BMP180;30134;47.866;-4.222;2022-08-01T01:10:52;102116.00;;;28.90
44429;BMP180;30134;47.866;-4.222;2022-08-01T01:13:49;102114.00;;;29.10
44429;BMP180;30134;47.866;-4.222;2022-08-01T01:16:14;102110.00;;;29.00
44429;BMP180;30134;47.866;-4.222;2022-08-01T01:19:04;102107.00;;;29.10
44429;BMP180;30134;47.866;-4.222;2022-08-01T01:24:21;102116.00;;;28.90
44429;BMP180;30134;47.866;-4.222;2022-08-01T01:27:06;102108.00;;;29.00
44429;BMP180;30134;47.866;-4.222;2022-08-01T01:29:46;102105.00;;;29.00
44429;BMP180;30134;47.866;-4.222;2022-08-01T01:35:08;102101.00;;;29.00
44429;BMP180;30134;47.866;-4.222;2022-08-01T01:37:39;102094.00;;;28.90
44429;BMP180;30134;47.866;-4.222;2022-08-01T01:40:08;102087.00;;;29.00
44429;BMP180;30134;47.866;-4.222;2022-08-01T01:42:42;102076.00;;;29.00
44429;BMP180;30134;47.866;-4.222;2022-08-01T01:45:09;102070.00;;;29.00
44429;BMP180;30134;47.866;-4.222;2022-08-01T01:47:38;102071.00;;;29.00
44429;BMP180;30134;47.866;-4.222;2022-08-01T01:50:07;102074.00;;;29.00
44429;BMP180;30134;47.866;-4.222;2022-08-01T01:52:35;102069.00;;;28.80
44429;BMP180;30134;47.866;-4.222;2022-08-01T01:55:06;102079.00;;;29.00
44429;BMP180;30134;47.866;-4.222;2022-08-01T01:57:38;102086.00;;;29.00
44429;BMP180;30134;47.866;-4.222;2022-08-01T02:00:05;102082.00;;;29.00
44429;BMP180;30134;47.866;-4.222;2022-08-01T02:02:36;102084.00;;;28.90
44429;BMP180;30134;47.866;-4.222;2022-08-01T02:05:03;102085.00;;;29.00
44429;BMP180;30134;47.866;-4.222;2022-08-01T02:07:31;102084.00;;;28.90
44429;BMP180;30134;47.866;-4.222;2022-08-01T02:09:59;102094.00;;;28.90
44429;BMP180;30134;47.866;-4.222;2022-08-01T02:12:26;102100.00;;;29.00
44429;BMP180;30134;47.866;-4.222;2022-08-01T02:14:53;102093.00;;;29.00
44429;BMP180;30134;47.866;-4.222;2022-08-01T02:17:21;102099.00;;;29.10
44429;BMP180;30134;47.866;-4.222;2022-08-01T02:19:50;102095.00;;;28.90
44429;BMP180;30134;47.866;-4.222;2022-08-01T02:22:48;102099.00;;;28.80
44429;BMP180;30134;47.866;-4.222;2022-08-01T02:25:36;102096.00;;;28.80
44429;BMP180;30134;47.866;-4.222;2022-08-01T02:28:09;102098.00;;;29.00
44429;BMP180;30134;47.866;-4.222;2022-08-01T02:30:39;102085.00;;;28.90
44429;BMP180;30134;47.866;-4.222;2022-08-01T02:33:19;102080.00;;;28.90
44429;BMP180;30134;47.866;-4.222;2022-08-01T02:35:52;102077.00;;;29.00
44429;BMP180;30134;47.866;-4.222;2022-08-01T02:38:24;102074.00;;;28.90
44429;BMP180;30134;47.866;-4.222;2022-08-01T02:40:54;102081.00;;;28.90
44429;BMP180;30134;47.866;-4.222;2022-08-01T02:43:30;102087.00;;;28.80
44429;BMP180;30134;47.866;-4.222;2022-08-01T02:46:02;102088.00;;;28.90
44429;BMP180;30134;47.866;-4.222;2022-08-01T02:48:30;102089.00;;;29.00
44429;BMP180;30134;47.866;-4.222;2022-08-01T02:51:00;102077.00;;;29.00
44429;BMP180;30134;47.866;-4.222;2022-08-01T02:53:31;102085.00;;;28.90
44429;BMP180;30134;47.866;-4.222;2022-08-01T02:55:59;102082.00;;;29.00
44429;BMP180;30134;47.866;-4.222;2022-08-01T02:58:26;102084.00;;;29.10
44429;BMP180;30134;47.866;-4.222;2022-08-01T03:00:52;102086.00;;;28.90
44429;BMP180;30134;47.866;-4.222;2022-08-01T03:03:19;102080.00;;;29.00
44429;BMP180;30134;47.866;-4.222;2022-08-01T03:05:46;102072.00;;;29.00
44429;BMP180;30134;47.866;-4.222;2022-08-01T03:08:16;102063.00;;;28.70
44429;BMP180;30134;47.866;-4.222;2022-08-01T03:10:45;102067.00;;;28.90
44429;BMP180;30134;47.866;-4.222;2022-08-01T03:13:12;102059.00;;;28.90
44429;BMP180;30134;47.866;-4.222;2022-08-01T03:15:40;102069.00;;;29.00
44429;BMP180;30134;47.866;-4.222;2022-08-01T03:18:10;102062.00;;;29.10
44429;BMP180;30134;47.866;-4.222;2022-08-01T03:20:37;102057.00;;;28.90
44429;BMP180;30134;47.866;-4.222;2022-08-01T03:23:12;102055.00;;;29.00
44429;BMP180;30134;47.866;-4.222;2022-08-01T03:25:40;102057.00;;;29.00
44429;BMP180;30134;47.866;-4.222;2022-08-01T03:28:12;102056.00;;;28.90
44429;BMP180;30134;47.866;-4.222;2022-08-01T03:30:40;102056.00;;;29.00
44429;BMP180;30134;47.866;-4.222;2022-08-01T03:33:06;102063.00;;;29.10
44429;BMP180;30134;47.866;-4.222;2022-08-01T03:35:47;102062.00;;;29.00
44429;BMP180;30134;47.866;-4.222;2022-08-01T03:38:21;102062.00;;;29.00
44429;BMP180;30134;47.866;-4.222;2022-08-01T03:41:04;102060.00;;;28.90
44429;BMP180;30134;47.866;-4.222;2022-08-01T03:44:00;102061.00;;;28.90
44429;BMP180;30134;47.866;-4.222;2022-08-01T03:46:46;102061.00;;;29.10
44429;BMP180;30134;47.866;-4.222;2022-08-01T03:49:20;102066.00;;;29.00
44429;BMP180;30134;47.866;-4.222;2022-08-01T03:51:51;102064.00;;;29.10
44429;BMP180;30134;47.866;-4.222;2022-08-01T03:54:30;102065.00;;;29.00
44429;BMP180;30134;47.866;-4.222;2022-08-01T03:56:57;102060.00;;;29.00
44429;BMP180;30134;47.866;-4.222;2022-08-01T03:59:24;102065.00;;;29.00
44429;BMP180;30134;47.866;-4.222;2022-08-01T04:01:51;102063.00;;;28.90
44429;BMP180;30134;47.866;-4.222;2022-08-01T04:04:17;102061.00;;;28.90
44429;BMP180;30134;47.866;-4.222;2022-08-01T04:06:43;102067.00;;;29.00
44429;BMP180;30134;47.866;-4.222;2022-08-01T04:09:11;102067.00;;;29.10
44429;BMP180;30134;47.866;-4.222;2022-08-01T04:11:45;102059.00;;;29.00
44429;BMP180;30134;47.866;-4.222;2022-08-01T04:14:11;102061.00;;;28.90
44429;BMP180;30134;47.866;-4.222;2022-08-01T04:16:37;102068.00;;;29.00
44429;BMP180;30134;47.866;-4.222;2022-08-01T04:19:03;102070.00;;;29.00
44429;BMP180;30134;47.866;-4.222;2022-08-01T04:21:31;102074.00;;;28.90
44429;BMP180;30134;47.866;-4.222;2022-08-01T04:24:10;102076.00;;;28.90
44429;BMP180;30134;47.866;-4.222;2022-08-01T04:26:41;102075.00;;;28.80
44429;BMP180;30134;47.866;-4.222;2022-08-01T04:29:09;102085.00;;;28.90
44429;BMP180;30134;47.866;-4.222;2022-08-01T04:31:37;102071.00;;;28.90
44429;BMP180;30134;47.866;-4.222;2022-08-01T04:34:06;102084.00;;;29.00
44429;BMP180;30134;47.866;-4.222;2022-08-01T04:36:35;102082.00;;;28.90
44429;BMP180;30134;47.866;-4.222;2022-08-01T04:39:04;102075.00;;;28.90
44429;BMP180;30134;47.866;-4.222;2022-08-01T04:41:31;102073.00;;;29.00
44429;BMP180;30134;47.866;-4.222;2022-08-01T04:44:05;102070.00;;;28.90
44429;BMP180;30134;47.866;-4.222;2022-08-01T04:46:34;102072.00;;;28.90
44429;BMP180;30134;47.866;-4.222;2022-08-01T04:49:00;102081.00;;;28.90
44429;BMP180;30134;47.866;-4.222;2022-08-01T04:51:27;102089.00;;;28.90
44429;BMP180;30134;47.866;-4.222;2022-08-01T04:53:53;102100.00;;;28.90
44429;BMP180;30134;47.866;-4.222;2022-08-01T04:56:20;102099.00;;;28.90
44429;BMP180;30134;47.866;-4.222;2022-08-01T04:58:46;102095.00;;;28.90
44429;BMP180;30134;47.866;-4.222;2022-08-01T05:01:13;102090.00;;;28.90
44429;BMP180;30134;47.866;-4.222;2022-08-01T05:03:39;102093.00;;;29.00
44429;BMP180;30134;47.866;-4.222;2022-08-01T05:06:06;102102.00;;;28.90
44429;BMP180;30134;47.866;-4.222;2022-08-01T05:08:32;102098.00;;;28.90
44429;BMP180;30134;47.866;-4.222;2022-08-01T05:10:58;102092.00;;;29.00
44429;BMP180;30134;47.866;-4.222;2022-08-01T05:13:24;102094.00;;;28.90
44429;BMP180;30134;47.866;-4.222;2022-08-01T05:15:51;102106.00;;;28.90
44429;BMP180;30134;47.866;-4.222;2022-08-01T05:18:18;102103.00;;;28.90
44429;BMP180;30134;47.866;-4.222;2022-08-01T05:20:44;102095.00;;;28.80
44429;BMP180;30134;47.866;-4.222;2022-08-01T05:23:10;102090.00;;;29.00
44429;BMP180;30134;47.866;-4.222;2022-08-01T05:25:38;102090.00;;;29.00
44429;BMP180;30134;47.866;-4.222;2022-08-01T05:28:04;102088.00;;;28.90
44429;BMP180;30134;47.866;-4.222;2022-08-01T05:30:30;102100.00;;;28.90
44429;BMP180;30134;47.866;-4.222;2022-08-01T05:32:56;102092.00;;;28.90
44429;BMP180;30134;47.866;-4.222;2022-08-01T05:35:22;102095.00;;;29.00
44429;BMP180;30134;47.866;-4.222;2022-08-01T05:37:49;102094.00;;;28.80
44429;BMP180;30134;47.866;-4.222;2022-08-01T05:40:14;102105.00;;;29.00
44429;BMP180;30134;47.866;-4.222;2022-08-01T05:42:40;102111.00;;;28.90
44429;BMP180;30134;47.866;-4.222;2022-08-01T05:45:13;102111.00;;;28.90
44429;BMP180;30134;47.866;-4.222;2022-08-01T05:47:39;102104.00;;;29.00
44429;BMP180;30134;47.866;-4.222;2022-08-01T05:50:06;102107.00;;;29.00
44429;BMP180;30134;47.866;-4.222;2022-08-01T05:52:32;102107.00;;;29.00
44429;BMP180;30134;47.866;-4.222;2022-08-01T05:54:59;102109.00;;;28.90
44429;BMP180;30134;47.866;-4.222;2022-08-01T05:57:24;102113.00;;;28.90
44429;BMP180;30134;47.866;-4.222;2022-08-01T05:59:50;102108.00;;;28.90
44429;BMP180;30134;47.866;-4.222;2022-08-01T06:02:16;102113.00;;;28.80
44429;BMP180;30134;47.866;-4.222;2022-08-01T06:04:42;102107.00;;;29.00
44429;BMP180;30134;47.866;-4.222;2022-08-01T06:07:08;102109.00;;;28.90
44429;BMP180;30134;47.866;-4.222;2022-08-01T06:09:34;102108.00;;;28.80
44429;BMP180;30134;47.866;-4.222;2022-08-01T06:12:00;102101.00;;;28.90
44429;BMP180;30134;47.866;-4.222;2022-08-01T06:14:27;102100.00;;;28.90
44429;BMP180;30134;47.866;-4.222;2022-08-01T06:16:53;102106.00;;;28.80
44429;BMP180;30134;47.866;-4.222;2022-08-01T06:19:21;102111.00;;;28.80
44429;BMP180;30134;47.866;-4.222;2022-08-01T06:21:47;102103.00;;;28.90
44429;BMP180;30134;47.866;-4.222;2022-08-01T06:24:14;102106.00;;;28.80
44429;BMP180;30134;47.866;-4.222;2022-08-01T06:26:40;102108.00;;;28.90
44429;BMP180;30134;47.866;-4.222;2022-08-01T06:29:06;102106.00;;;28.90
44429;BMP180;30134;47.866;-4.222;2022-08-01T06:31:32;102112.00;;;28.90
44429;BMP180;30134;47.866;-4.222;2022-08-01T06:34:00;102110.00;;;28.90
44429;BMP180;30134;47.866;-4.222;2022-08-01T06:36:26;102110.00;;;28.80
44429;BMP180;30134;47.866;-4.222;2022-08-01T06:38:52;102113.00;;;28.80
44429;BMP180;30134;47.866;-4.222;2022-08-01T06:41:18;102128.00;;;28.80
44429;BMP180;30134;47.866;-4.222;2022-08-01T06:43:44;102130.00;;;28.90
44429;BMP180;30134;47.866;-4.222;2022-08-01T06:46:17;102131.00;;;28.80
44429;BMP180;30134;47.866;-4.222;2022-08-01T06:48:43;102132.00;;;28.80
44429;BMP180;30134;47.866;-4.222;2022-08-01T06:51:09;102119.00;;;28.80
44429;BMP180;30134;47.866;-4.222;2022-08-01T06:53:38;102118.00;;;28.90
44429;BMP180;30134;47.866;-4.222;2022-08-01T06:56:05;102131.00;;;28.80
44429;BMP180;30134;47.866;-4.222;2022-08-01T06:58:31;102127.00;;;28.90
44429;BMP180;30134;47.866;-4.222;2022-08-01T07:00:58;102118.00;;;28.90
44429;BMP180;30134;47.866;-4.222;2022-08-01T07:03:24;102114.00;;;28.90
44429;BMP180;30134;47.866;-4.222;2022-08-01T07:05:50;102118.00;;;28.90
44429;BMP180;30134;47.866;-4.222;2022-08-01T07:08:16;102117.00;;;28.80
44429;BMP180;30134;47.866;-4.222;2022-08-01T07:10:42;102117.00;;;28.90
44429;BMP180;30134;47.866;-4.222;2022-08-01T07:13:08;102132.00;;;28.80
44429;BMP180;30134;47.866;-4.222;2022-08-01T07:15:35;102134.00;;;28.90
44429;BMP180;30134;47.866;-4.222;2022-08-01T07:18:01;102125.00;;;28.80
44429;BMP180;30134;47.866;-4.222;2022-08-01T07:20:29;102121.00;;;28.90
44429;BMP180;30134;47.866;-4.222;2022-08-01T07:22:56;102122.00;;;28.70
44429;BMP180;30134;47.866;-4.222;2022-08-01T07:25:22;102127.00;;;28.80
44429;BMP180;30134;47.866;-4.222;2022-08-01T07:27:48;102129.00;;;28.80
44429;BMP180;30134;47.866;-4.222;2022-08-01T07:30:14;102129.00;;;28.80
44429;BMP180;30134;47.866;-4.222;2022-08-01T07:32:40;102129.00;;;28.60
44429;BMP180;30134;47.866;-4.222;2022-08-01T07:35:07;102132.00;;;28.70
44429;BMP180;30134;47.866;-4.222;2022-08-01T07:37:34;102139.00;;;28.80
44429;BMP180;30134;47.866;-4.222;2022-08-01T07:40:00;102144.00;;;28.80
44429;BMP180;30134;47.866;-4.222;2022-08-01T07:42:27;102140.00;;;28.70
44429;BMP180;30134;47.866;-4.222;2022-08-01T07:44:54;102147.00;;;28.80
44429;BMP180;30134;47.866;-4.222;2022-08-01T07:47:27;102143.00;;;28.80
44429;BMP180;30134;47.866;-4.222;2022-08-01T07:50:00;102143.00;;;28.80
44429;BMP180;30134;47.866;-4.222;2022-08-01T07:52:26;102151.00;;;28.70
44429;BMP180;30134;47.866;-4.222;2022-08-01T07:54:53;102152.00;;;28.80
44429;BMP180;30134;47.866;-4.222;2022-08-01T07:57:19;102161.00;;;28.70
44429;BMP180;30134;47.866;-4.222;2022-08-01T07:59:45;102158.00;;;28.80
44429;BMP180;30134;47.866;-4.222;2022-08-01T08:02:11;102154.00;;;28.90
44429;BMP180;30134;47.866;-4.222;2022-08-01T08:04:36;102160.00;;;28.80
44429;BMP180;30134;47.866;-4.222;2022-08-01T08:07:03;102153.00;;;28.70
44429;BMP180;30134;47.866;-4.222;2022-08-01T08:09:29;102148.00;;;28.70
44429;BMP180;30134;47.866;-4.222;2022-08-01T08:11:55;102159.00;;;28.70
44429;BMP180;30134;47.866;-4.222;2022-08-01T08:14:21;102160.00;;;28.70
44429;BMP180;30134;47.866;-4.222;2022-08-01T08:16:48;102153.00;;;28.70
44429;BMP180;30134;47.866;-4.222;2022-08-01T08:19:14;102153.00;;;28.60
44429;BMP180;30134;47.866;-4.222;2022-08-01T08:21:41;102153.00;;;28.70
44429;BMP180;30134;47.866;-4.222;2022-08-01T08:24:09;102163.00;;;28.50
44429;BMP180;30134;47.866;-4.222;2022-08-01T08:26:55;102163.00;;;28.80
44429;BMP180;30134;47.866;-4.222;2022-08-01T08:29:22;102155.00;;;28.60
44429;BMP180;30134;47.866;-4.222;2022-08-01T08:31:49;102158.00;;;28.70
44429;BMP180;30134;47.866;-4.222;2022-08-01T08:34:16;102157.00;;;28.70
44429;BMP180;30134;47.866;-4.222;2022-08-01T08:36:43;102154.00;;;28.80
44429;BMP180;30134;47.866;-4.222;2022-08-01T08:39:09;102148.00;;;28.70
44429;BMP180;30134;47.866;-4.222;2022-08-01T08:41:35;102154.00;;;28.80
44429;BMP180;30134;47.866;-4.222;2022-08-01T08:44:03;102151.00;;;28.80
44429;BMP180;30134;47.866;-4.222;2022-08-01T08:46:32;102144.00;;;28.80
44429;BMP180;30134;47.866;-4.222;2022-08-01T08:49:04;102131.00;;;28.60
44429;BMP180;30134;47.866;-4.222;2022-08-01T08:51:34;102146.00;;;28.70
44429;BMP180;30134;47.866;-4.222;2022-08-01T08:54:05;102145.00;;;28.60
44429;BMP180;30134;47.866;-4.222;2022-08-01T08:56:31;102151.00;;;28.80
44429;BMP180;30134;47.866;-4.222;2022-08-01T08:59:02;102151.00;;;28.50
44429;BMP180;30134;47.866;-4.222;2022-08-01T09:01:28;102156.00;;;28.80
44429;BMP180;30134;47.866;-4.222;2022-08-01T09:03:58;102164.00;;;28.70
44429;BMP180;30134;47.866;-4.222;2022-08-01T09:06:24;102165.00;;;28.60
44429;BMP180;30134;47.866;-4.222;2022-08-01T09:08:51;102160.00;;;28.60
44429;BMP180;30134;47.866;-4.222;2022-08-01T09:11:17;102165.00;;;28.60
44429;BMP180;30134;47.866;-4.222;2022-08-01T09:14:12;102163.00;;;28.50
44429;BMP180;30134;47.866;-4.222;2022-08-01T09:16:45;102164.00;;;28.60
44429;BMP180;30134;47.866;-4.222;2022-08-01T09:19:14;102160.00;;;28.50
44429;BMP180;30134;47.866;-4.222;2022-08-01T09:22:02;102156.00;;;28.60
44429;BMP180;30134;47.866;-4.222;2022-08-01T09:24:31;102147.00;;;28.30
44429;BMP180;30134;47.866;-4.222;2022-08-01T09:26:58;102158.00;;;28.70
44429;BMP180;30134;47.866;-4.222;2022-08-01T09:29:29;102154.00;;;28.60
44429;BMP180;30134;47.866;-4.222;2022-08-01T09:31:55;102156.00;;;28.60
44429;BMP180;30134;47.866;-4.222;2022-08-01T09:34:29;102150.00;;;28.60
44429;BMP180;30134;47.866;-4.222;2022-08-01T09:37:02;102155.00;;;28.60
44429;BMP180;30134;47.866;-4.222;2022-08-01T09:39:37;102151.00;;;28.40
44429;BMP180;30134;47.866;-4.222;2022-08-01T09:42:26;102150.00;;;28.60
44429;BMP180;30134;47.866;-4.222;2022-08-01T09:44:53;102145.00;;;28.60
44429;BMP180;30134;47.866;-4.222;2022-08-01T09:47:20;102151.00;;;28.50
44429;BMP180;30134;47.866;-4.222;2022-08-01T09:49:56;102146.00;;;28.40
44429;BMP180;30134;47.866;-4.222;2022-08-01T09:52:25;102153.00;;;28.60
44429;BMP180;30134;47.866;-4.222;2022-08-01T09:54:58;102151.00;;;28.60
44429;BMP180;30134;47.866;-4.222;2022-08-01T09:57:27;102150.00;;;28.60
44429;BMP180;30134;47.866;-4.222;2022-08-01T09:59:56;102150.00;;;28.50
44429;BMP180;30134;47.866;-4.222;2022-08-01T10:02:34;102156.00;;;28.60
44429;BMP180;30134;47.866;-4.222;2022-08-01T10:05:09;102154.00;;;28.50
44429;BMP180;30134;47.866;-4.222;2022-08-01T10:07:58;102150.00;;;28.60
44429;BMP180;30134;47.866;-4.222;2022-08-01T10:10:26;102150.00;;;28.50
44429;BMP180;30134;47.866;-4.222;2022-08-01T10:12:52;102152.00;;;28.50
44429;BMP180;30134;47.866;-4.222;2022-08-01T10:15:19;102157.00;;;28.50
44429;BMP180;30134;47.866;-4.222;2022-08-01T10:17:58;102156.00;;;28.60
44429;BMP180;30134;47.866;-4.222;2022-08-01T10:20:28;102159.00;;;28.60
44429;BMP180;30134;47.866;-4.222;2022-08-01T10:22:57;102164.00;;;28.70
44429;BMP180;30134;47.866;-4.222;2022-08-01T10:25:24;102163.00;;;28.50
44429;BMP180;30134;47.866;-4.222;2022-08-01T10:27:54;102169.00;;;28.70
44429;BMP180;30134;47.866;-4.222;2022-08-01T10:30:21;102163.00;;;28.50
44429;BMP180;30134;47.866;-4.222;2022-08-01T10:32:49;102159.00;;;28.70
44429;BMP180;30134;47.866;-4.222;2022-08-01T10:35:22;102161.00;;;28.70
44429;BMP180;30134;47.866;-4.222;2022-08-01T10:37:49;102158.00;;;28.80
44429;BMP180;30134;47.866;-4.222;2022-08-01T10:40:17;102159.00;;;28.70
44429;BMP180;30134;47.866;-4.222;2022-08-01T10:42:44;102158.00;;;28.60
44429;BMP180;30134;47.866;-4.222;2022-08-01T10:45:14;102156.00;;;28.50
44429;BMP180;30134;47.866;-4.222;2022-08-01T10:47:59;102164.00;;;28.50
44429;BMP180;30134;47.866;-4.222;2022-08-01T10:50:44;102163.00;;;28.70
44429;BMP180;30134;47.866;-4.222;2022-08-01T10:53:16;102159.00;;;28.50
44429;BMP180;30134;47.866;-4.222;2022-08-01T10:55:50;102164.00;;;28.70
44429;BMP180;30134;47.866;-4.222;2022-08-01T10:58:26;102163.00;;;28.60
44429;BMP180;30134;47.866;-4.222;2022-08-01T11:01:31;102167.00;;;28.60
44429;BMP180;30134;47.866;-4.222;2022-08-01T11:04:13;102158.00;;;28.60
44429;BMP180;30134;47.866;-4.222;2022-08-01T11:07:06;102168.00;;;28.60
44429;BMP180;30134;47.866;-4.222;2022-08-01T11:09:44;102166.00;;;28.60
44429;BMP180;30134;47.866;-4.222;2022-08-01T11:12:16;102169.00;;;28.50
44429;BMP180;30134;47.866;-4.222;2022-08-01T11:17:43;102176.00;;;28.50
44429;BMP180;30134;47.866;-4.222;2022-08-01T11:20:29;102179.00;;;28.60
44429;BMP180;30134;47.866;-4.222;2022-08-01T11:38:41;102157.00;;;28.60
44429;BMP180;30134;47.866;-4.222;2022-08-01T11:41:16;102162.00;;;28.60
44429;BMP180;30134;47.866;-4.222;2022-08-01T11:44:09;102154.00;;;28.40
44429;BMP180;30134;47.866;-4.222;2022-08-01T11:52:30;102163.00;;;28.50
44429;BMP180;30134;47.866;-4.222;2022-08-01T11:57:30;102160.00;;;28.50
44429;BMP180;30134;47.866;-4.222;2022-08-01T11:59:58;102162.00;;;28.60
44429;BMP180;30134;47.866;-4.222;2022-08-01T12:05:00;102161.00;;;28.60
44429;BMP180;30134;47.866;-4.222;2022-08-01T12:07:29;102164.00;;;28.40
44429;BMP180;30134;47.866;-4.222;2022-08-01T12:10:05;102155.00;;;28.60
44429;BMP180;30134;47.866;-4.222;2022-08-01T12:12:33;102156.00;;;28.50
44429;BMP180;30134;47.866;-4.222;2022-08-01T12:15:06;102155.00;;;28.50
44429;BMP180;30134;47.866;-4.222;2022-08-01T12:17:38;102156.00;;;28.80
44429;BMP180;30134;47.866;-4.222;2022-08-01T12:20:07;102158.00;;;28.80
44429;BMP180;30134;47.866;-4.222;2022-08-01T12:23:00;102151.00;;;29.00
44429;BMP180;30134;47.866;-4.222;2022-08-01T12:25:42;102144.00;;;29.00
44429;BMP180;30134;47.866;-4.222;2022-08-01T12:28:13;102144.00;;;29.30
44429;BMP180;30134;47.866;-4.222;2022-08-01T12:30:40;102144.00;;;29.20
44429;BMP180;30134;47.866;-4.222;2022-08-01T12:33:09;102142.00;;;29.20
44429;BMP180;30134;47.866;-4.222;2022-08-01T12:35:37;102142.00;;;29.40
44429;BMP180;30134;47.866;-4.222;2022-08-01T12:38:18;102138.00;;;29.30
44429;BMP180;30134;47.866;-4.222;2022-08-01T12:40:47;102133.00;;;29.40
44429;BMP180;30134;47.866;-4.222;2022-08-01T12:43:23;102139.00;;;29.50
44429;BMP180;30134;47.866;-4.222;2022-08-01T12:45:53;102141.00;;;29.40
44429;BMP180;30134;47.866;-4.222;2022-08-01T12:48:19;102132.00;;;29.70
44429;BMP180;30134;47.866;-4.222;2022-08-01T12:50:49;102132.00;;;29.70
44429;BMP180;30134;47.866;-4.222;2022-08-01T12:53:16;102134.00;;;29.60
44429;BMP180;30134;47.866;-4.222;2022-08-01T12:55:54;102115.00;;;29.80
44429;BMP180;30134;47.866;-4.222;2022-08-01T12:58:21;102114.00;;;29.90
44429;BMP180;30134;47.866;-4.222;2022-08-01T13:00:50;102118.00;;;29.90
44429;BMP180;30134;47.866;-4.222;2022-08-01T13:03:28;102117.00;;;29.90
44429;BMP180;30134;47.866;-4.222;2022-08-01T13:05:58;102121.00;;;30.00
44429;BMP180;30134;47.866;-4.222;2022-08-01T13:08:32;102119.00;;;29.90
44429;BMP180;30134;47.866;-4.222;2022-08-01T13:11:16;102125.00;;;30.10
44429;BMP180;30134;47.866;-4.222;2022-08-01T13:13:47;102115.00;;;30.00
44429;BMP180;30134;47.866;-4.222;2022-08-01T13:16:14;102118.00;;;30.10
44429;BMP180;30134;47.866;-4.222;2022-08-01T13:18:49;102117.00;;;30.30
44429;BMP180;30134;47.866;-4.222;2022-08-01T13:24:04;102112.00;;;30.40
44429;BMP180;30134;47.866;-4.222;2022-08-01T13:29:18;102113.00;;;30.30
44429;BMP180;30134;47.866;-4.222;2022-08-01T13:31:46;102101.00;;;30.20
44429;BMP180;30134;47.866;-4.222;2022-08-01T13:34:13;102096.00;;;30.20
44429;BMP180;30134;47.866;-4.222;2022-08-01T13:36:39;102105.00;;;30.20
44429;BMP180;30134;47.866;-4.222;2022-08-01T13:39:06;102110.00;;;30.50
44429;BMP180;30134;47.866;-4.222;2022-08-01T13:41:51;102099.00;;;30.20
44429;BMP180;30134;47.866;-4.222;2022-08-01T13:44:18;102108.00;;;30.40
44429;BMP180;30134;47.866;-4.222;2022-08-01T13:46:45;102112.00;;;30.40
44429;BMP180;30134;47.866;-4.222;2022-08-01T13:49:13;102112.00;;;30.50
44429;BMP180;30134;47.866;-4.222;2022-08-01T13:51:39;102104.00;;;30.30
44429;BMP180;30134;47.866;-4.222;2022-08-01T13:54:06;102105.00;;;30.30
44429;BMP180;30134;47.866;-4.222;2022-08-01T13:56:33;102109.00;;;30.40
44429;BMP180;30134;47.866;-4.222;2022-08-01T13:58:59;102113.00;;;30.60
44429;BMP180;30134;47.866;-4.222;2022-08-01T14:01:25;102116.00;;;30.50
44429;BMP180;30134;47.866;-4.222;2022-08-01T14:03:52;102114.00;;;30.30
44429;BMP180;30134;47.866;-4.222;2022-08-01T14:06:19;102109.00;;;30.20
44429;BMP180;30134;47.866;-4.222;2022-08-01T14:08:49;102101.00;;;30.60
44429;BMP180;30134;47.866;-4.222;2022-08-01T14:11:18;102094.00;;;30.30
44429;BMP180;30134;47.866;-4.222;2022-08-01T14:13:44;102102.00;;;30.30
44429;BMP180;30134;47.866;-4.222;2022-08-01T14:16:10;102091.00;;;30.40
44429;BMP180;30134;47.866;-4.222;2022-08-01T14:18:38;102094.00;;;30.70
44429;BMP180;30134;47.866;-4.222;2022-08-01T14:21:04;102098.00;;;30.40
44429;BMP180;30134;47.866;-4.222;2022-08-01T14:23:31;102101.00;;;30.80
44429;BMP180;30134;47.866;-4.222;2022-08-01T14:25:57;102099.00;;;30.50
44429;BMP180;30134;47.866;-4.222;2022-08-01T14:28:29;102090.00;;;30.60
44429;BMP180;30134;47.866;-4.222;2022-08-01T14:30:59;102092.00;;;30.60
44429;BMP180;30134;47.866;-4.222;2022-08-01T14:33:26;102085.00;;;30.50
44429;BMP180;30134;47.866;-4.222;2022-08-01T14:35:53;102087.00;;;30.40
44429;BMP180;30134;47.866;-4.222;2022-08-01T14:38:19;102083.00;;;30.60
44429;BMP180;30134;47.866;-4.222;2022-08-01T14:40:45;102085.00;;;30.50